KLEW/LEW METAR and TAF weather

Enter ICAO airport designator
Station Type Date Time Source
KLEW METAR 2022/11/27 06:56 UTC NOAA

KLEW 270656Z AUTO 00000KT 10SM CLR M04/M04 A2979 RMK AO2 SLP096 T10441044 FZRANO


Station Type Date Time Source
KLEW Decoded METAR 2022/11/27 06:56 UTC NOAA

Auburn-Lewiston, ME, United States (KLEW) 44-03N 070-17W
Nov 27, 2022 - 01:56 AM EST / 2022.11.27 0656 UTC
Wind: Calm:0
Visibility: 10 mile(s):0
Sky conditions: clear
Temperature: 24.1 F (-4.4 C)
Dew Point: 24.1 F (-4.4 C)
Relative Humidity: 100%
Pressure (altimeter): 29.79 in. Hg (1008 hPa)
ob: KLEW 270656Z AUTO 00000KT 10SM CLR M04/M04 A2979 RMK AO2 SLP096 T10441044 FZRANO
cycle: 7

Station Type Date Time Source
KLEW TAF UTC NOAA

Error!

Example: see airport list